PWSweather.com
Personal Weather Stations
Station Observations
KOHAVON11
Long Road Station, Avon, OH 44011

Long Road StationAvon, OH 44011

Lat: 41.437, Lon: -82.0477

Elevation: 686

Station Type: Davis Vantage Pro2

http://www.avon-weather.com

High Low Average
Temperature 50.4°F10.2°C 44.6°F7.0°C 46.9°F8.3°C
Dew Point 47.3°F8.5°C 41.6°F5.3°C 43.8°F6.6°C
Winds 27.0 mph 43.5 kmh Calm Calm 4.0 mph ENE6.4 kmh ENE
Wind Gusts 27.0 mph43.5 kmh -- 11.0 mph17.7 kmh
Humidity 89% 88% 89%
Pressure 29.91 in1012.9 mb 29.46 in997.6 mb -
Precipitation 1.74 in44.2 mm - -
Hour Temp Dew Point Humidity Winds Wind Gusts Pressure Precip Precip Rate Daily Precip Total
12:04 AM 50.9°F10.5°C 47.8°F8.8°C 89% 3.0 mph ENE4.8 kmh ENE 4.0 mph6.4 kmh 29.89 in1012.2 mb 0.00 in0.0 mm 0.00 in0.0 mm 0.00 in0.0 mm
12:09 AM 50.9°F10.5°C 47.8°F8.8°C 89% 1.0 mph E1.6 kmh E 6.0 mph9.7 kmh 29.89 in1012.2 mb 0.00 in0.0 mm 0.00 in0.0 mm 0.00 in0.0 mm
12:14 AM 50.8°F10.4°C 47.7°F8.7°C 89% 3.0 mph ENE4.8 kmh ENE 7.0 mph11.3 kmh 29.89 in1012.2 mb 0.00 in0.0 mm 0.00 in0.0 mm 0.00 in0.0 mm
12:19 AM 50.8°F10.4°C 47.7°F8.7°C 89% Calm Calm -- 29.89 in1012.2 mb 0.00 in0.0 mm 0.00 in0.0 mm 0.00 in0.0 mm
12:24 AM 50.7°F10.4°C 47.6°F8.7°C 89% Calm Calm -- 29.89 in1012.2 mb 0.00 in0.0 mm 0.00 in0.0 mm 0.00 in0.0 mm
12:29 AM 50.7°F10.4°C 47.6°F8.7°C 89% Calm Calm -- 29.89 in1012.2 mb 0.00 in0.0 mm 0.00 in0.0 mm 0.00 in0.0 mm
12:34 AM 50.6°F10.3°C 47.5°F8.6°C 89% Calm Calm -- 29.89 in1012.2 mb 0.00 in0.0 mm 0.00 in0.0 mm 0.00 in0.0 mm
12:39 AM 50.6°F10.3°C 47.5°F8.6°C 89% Calm Calm -- 29.89 in1012.2 mb 0.00 in0.0 mm 0.00 in0.0 mm 0.00 in0.0 mm
12:44 AM 50.5°F10.3°C 47.4°F8.6°C 89% Calm Calm -- 29.89 in1012.2 mb 0.00 in0.0 mm 0.00 in0.0 mm 0.00 in0.0 mm
12:49 AM 50.5°F10.3°C 47.4°F8.6°C 89% Calm Calm -- 29.89 in1012.2 mb 0.00 in0.0 mm 0.00 in0.0 mm 0.00 in0.0 mm
12:54 AM 50.5°F10.3°C 47.4°F8.6°C 89% Calm Calm -- 29.90 in1012.5 mb 0.00 in0.0 mm 0.00 in0.0 mm 0.00 in0.0 mm
12:59 AM 50.4°F10.2°C 47.3°F8.5°C 89% Calm Calm -- 29.90 in1012.5 mb 0.09 in2.3 mm 1.08 in27.4 mm 0.01 in0.3 mm
01:04 AM 50.4°F10.2°C 47.3°F8.5°C 89% Calm Calm -- 29.89 in1012.2 mb 0.20 in5.1 mm 0.12 in3.0 mm 0.03 in0.8 mm
01:09 AM 50.4°F10.2°C 47.3°F8.5°C 89% Calm Calm -- 29.89 in1012.2 mb 0.15 in3.8 mm 0.00 in0.0 mm 0.04 in1.0 mm
01:14 AM 50.4°F10.2°C 47.3°F8.5°C 89% Calm Calm -- 29.91 in1012.9 mb 0.10 in2.5 mm 0.00 in0.0 mm 0.05 in1.3 mm
01:19 AM 50.4°F10.2°C 47.3°F8.5°C 89% 2.0 mph NNW3.2 kmh NNW 5.0 mph8.0 kmh 29.91 in1012.9 mb 0.09 in2.3 mm 0.00 in0.0 mm 0.05 in1.3 mm
01:24 AM 50.4°F10.2°C 47.3°F8.5°C 89% Calm Calm -- 29.91 in1012.9 mb 0.15 in3.8 mm 0.72 in18.3 mm 0.07 in1.8 mm
01:29 AM 50.3°F10.2°C 47.2°F8.4°C 89% Calm Calm -- 29.91 in1012.9 mb 0.14 in3.6 mm 0.00 in0.0 mm 0.08 in2.0 mm
01:34 AM 50.3°F10.2°C 47.2°F8.4°C 89% Calm Calm -- 29.91 in1012.9 mb 0.09 in2.3 mm 0.00 in0.0 mm 0.09 in2.3 mm
01:39 AM 50.2°F10.1°C 47.1°F8.4°C 89% Calm Calm -- 29.89 in1012.2 mb 0.09 in2.3 mm 0.00 in0.0 mm 0.09 in2.3 mm
01:44 AM 50.1°F10.1°C 47.0°F8.3°C 89% Calm Calm -- 29.89 in1012.2 mb 0.05 in1.3 mm 0.00 in0.0 mm 0.09 in2.3 mm
01:49 AM 50.0°F10.0°C 46.9°F8.3°C 89% Calm Calm -- 29.89 in1012.2 mb 0.05 in1.3 mm 0.00 in0.0 mm 0.10 in2.5 mm
01:54 AM 50.0°F10.0°C 46.9°F8.3°C 89% Calm Calm 2.0 mph3.2 kmh 29.88 in1011.9 mb 0.05 in1.3 mm 0.00 in0.0 mm 0.10 in2.5 mm
01:59 AM 49.9°F9.9°C 46.8°F8.2°C 89% Calm Calm -- 29.88 in1011.9 mb 0.04 in1.0 mm 0.00 in0.0 mm 0.10 in2.5 mm
02:04 AM 49.8°F9.9°C 46.7°F8.2°C 89% 3.0 mph ENE4.8 kmh ENE 5.0 mph8.0 kmh 29.88 in1011.9 mb 0.04 in1.0 mm 0.00 in0.0 mm 0.11 in2.8 mm
02:09 AM 49.7°F9.8°C 46.6°F8.1°C 89% Calm Calm 2.0 mph3.2 kmh 29.89 in1012.2 mb 0.04 in1.0 mm 0.00 in0.0 mm 0.11 in2.8 mm
02:14 AM 49.7°F9.8°C 46.6°F8.1°C 89% Calm Calm -- 29.88 in1011.9 mb 0.04 in1.0 mm 0.00 in0.0 mm 0.11 in2.8 mm
02:19 AM 49.6°F9.8°C 46.5°F8.1°C 89% Calm Calm -- 29.88 in1011.9 mb 0.00 in0.0 mm 0.00 in0.0 mm 0.11 in2.8 mm
02:24 AM 49.6°F9.8°C 46.5°F8.1°C 89% Calm Calm -- 29.87 in1011.5 mb 0.00 in0.0 mm 0.00 in0.0 mm 0.11 in2.8 mm
02:29 AM 49.5°F9.7°C 46.4°F8.0°C 89% Calm Calm -- 29.87 in1011.5 mb 0.00 in0.0 mm 0.00 in0.0 mm 0.12 in3.0 mm
02:34 AM 49.5°F9.7°C 46.4°F8.0°C 89% Calm Calm -- 29.86 in1011.2 mb 0.06 in1.5 mm 0.72 in18.3 mm 0.12 in3.0 mm
02:39 AM 49.5°F9.7°C 46.4°F8.0°C 89% Calm Calm -- 29.87 in1011.5 mb 0.06 in1.5 mm 0.00 in0.0 mm 0.13 in3.3 mm
02:44 AM 49.5°F9.7°C 46.4°F8.0°C 89% Calm Calm -- 29.88 in1011.9 mb 0.06 in1.5 mm 0.00 in0.0 mm 0.13 in3.3 mm
02:49 AM 49.4°F9.7°C 46.3°F7.9°C 89% Calm Calm -- 29.88 in1011.9 mb 0.04 in1.0 mm 0.00 in0.0 mm 0.13 in3.3 mm
02:54 AM 49.4°F9.7°C 46.3°F7.9°C 89% Calm Calm -- 29.89 in1012.2 mb 0.00 in0.0 mm 0.00 in0.0 mm 0.13 in3.3 mm
02:59 AM 49.4°F9.7°C 46.3°F7.9°C 89% Calm Calm -- 29.89 in1012.2 mb 0.00 in0.0 mm 0.00 in0.0 mm 0.13 in3.3 mm
03:04 AM 49.4°F9.7°C 46.3°F7.9°C 89% Calm Calm -- 29.90 in1012.5 mb 0.00 in0.0 mm 0.00 in0.0 mm 0.14 in3.6 mm
03:09 AM 49.4°F9.7°C 46.3°F7.9°C 89% Calm Calm -- 29.89 in1012.2 mb 0.00 in0.0 mm 0.00 in0.0 mm 0.14 in3.6 mm
03:14 AM 49.4°F9.7°C 46.3°F7.9°C 89% Calm Calm -- 29.89 in1012.2 mb 0.22 in5.6 mm 2.64 in67.1 mm 0.16 in4.1 mm
03:19 AM 49.4°F9.7°C 46.3°F7.9°C 89% Calm Calm -- 29.89 in1012.2 mb 0.11 in2.8 mm 0.00 in0.0 mm 0.16 in4.1 mm
03:24 AM 49.4°F9.7°C 46.3°F7.9°C 89% Calm Calm 6.0 mph9.7 kmh 29.89 in1012.2 mb 0.09 in2.3 mm 0.00 in0.0 mm 0.17 in4.3 mm
03:29 AM 49.3°F9.6°C 46.2°F7.9°C 89% Calm Calm -- 29.89 in1012.2 mb 0.05 in1.3 mm 0.00 in0.0 mm 0.17 in4.3 mm
03:34 AM 49.3°F9.6°C 46.2°F7.9°C 89% Calm Calm 1.0 mph1.6 kmh 29.89 in1012.2 mb 0.04 in1.0 mm 0.00 in0.0 mm 0.18 in4.6 mm
03:39 AM 49.1°F9.5°C 46.0°F7.8°C 89% 1.0 mph NE1.6 kmh NE 1.0 mph1.6 kmh 29.89 in1012.2 mb 0.04 in1.0 mm 0.00 in0.0 mm 0.18 in4.6 mm
03:44 AM 49.0°F9.4°C 45.9°F7.7°C 89% Calm Calm -- 29.89 in1012.2 mb 0.04 in1.0 mm 0.00 in0.0 mm 0.18 in4.6 mm
03:49 AM 48.9°F9.4°C 45.8°F7.7°C 89% Calm Calm -- 29.89 in1012.2 mb 0.04 in1.0 mm 0.00 in0.0 mm 0.18 in4.6 mm
03:54 AM 48.7°F9.3°C 45.6°F7.6°C 89% 1.0 mph ENE1.6 kmh ENE 1.0 mph1.6 kmh 29.89 in1012.2 mb 0.04 in1.0 mm 0.00 in0.0 mm 0.19 in4.8 mm
03:59 AM 48.5°F9.2°C 45.4°F7.4°C 89% Calm Calm -- 29.89 in1012.2 mb 0.04 in1.0 mm 0.00 in0.0 mm 0.19 in4.8 mm
04:04 AM 48.4°F9.1°C 45.3°F7.4°C 89% Calm Calm -- 29.89 in1012.2 mb 0.04 in1.0 mm 0.00 in0.0 mm 0.20 in5.1 mm
04:09 AM 48.2°F9.0°C 45.1°F7.3°C 89% Calm Calm -- 29.89 in1012.2 mb 0.04 in1.0 mm 0.00 in0.0 mm 0.20 in5.1 mm
04:14 AM 48.1°F8.9°C 45.0°F7.2°C 89% Calm Calm -- 29.89 in1012.2 mb 0.06 in1.5 mm 0.24 in6.1 mm 0.21 in5.3 mm
04:19 AM 48.0°F8.9°C 44.9°F7.2°C 89% Calm Calm -- 29.89 in1012.2 mb 0.06 in1.5 mm 0.00 in0.0 mm 0.21 in5.3 mm
04:24 AM 47.9°F8.8°C 44.8°F7.1°C 89% Calm Calm -- 29.90 in1012.5 mb 0.05 in1.3 mm 0.00 in0.0 mm 0.22 in5.6 mm
04:29 AM 47.7°F8.7°C 44.6°F7.0°C 89% Calm Calm -- 29.89 in1012.2 mb 0.05 in1.3 mm 0.00 in0.0 mm 0.22 in5.6 mm
04:34 AM 47.6°F8.7°C 44.5°F6.9°C 89% Calm Calm -- 29.89 in1012.2 mb 0.08 in2.0 mm 0.36 in9.1 mm 0.23 in5.8 mm
04:39 AM 47.5°F8.6°C 44.4°F6.9°C 89% Calm Calm -- 29.89 in1012.2 mb 0.09 in2.3 mm 0.12 in3.0 mm 0.24 in6.1 mm
04:44 AM 47.5°F8.6°C 44.4°F6.9°C 89% Calm Calm -- 29.89 in1012.2 mb 0.07 in1.8 mm 0.00 in0.0 mm 0.24 in6.1 mm
04:49 AM 47.4°F8.6°C 44.3°F6.8°C 89% Calm Calm -- 29.90 in1012.5 mb 0.07 in1.8 mm 0.00 in0.0 mm 0.25 in6.4 mm
04:54 AM 47.3°F8.5°C 44.2°F6.8°C 89% Calm Calm -- 29.89 in1012.2 mb 0.07 in1.8 mm 0.00 in0.0 mm 0.25 in6.4 mm
04:59 AM 47.2°F8.4°C 44.1°F6.7°C 89% Calm Calm -- 29.90 in1012.5 mb 0.12 in3.0 mm 0.60 in15.2 mm 0.26 in6.6 mm
05:04 AM 47.2°F8.4°C 44.1°F6.7°C 89% Calm Calm -- 29.90 in1012.5 mb 0.10 in2.5 mm 0.00 in0.0 mm 0.27 in6.9 mm
05:09 AM 47.1°F8.4°C 44.0°F6.7°C 89% Calm Calm -- 29.90 in1012.5 mb 0.08 in2.0 mm 0.00 in0.0 mm 0.28 in7.1 mm
05:14 AM 47.0°F8.3°C 43.9°F6.6°C 89% Calm Calm -- 29.91 in1012.9 mb 0.08 in2.0 mm 0.00 in0.0 mm 0.28 in7.1 mm
05:19 AM 46.8°F8.2°C 43.7°F6.5°C 89% Calm Calm -- 29.91 in1012.9 mb 0.06 in1.5 mm 0.00 in0.0 mm 0.29 in7.4 mm
05:24 AM 46.7°F8.2°C 43.6°F6.4°C 89% Calm Calm 3.0 mph4.8 kmh 29.90 in1012.5 mb 0.06 in1.5 mm 0.00 in0.0 mm 0.29 in7.4 mm
05:29 AM 46.6°F8.1°C 43.5°F6.4°C 89% Calm Calm 7.0 mph11.3 kmh 29.90 in1012.5 mb 0.05 in1.3 mm 0.00 in0.0 mm 0.29 in7.4 mm
05:34 AM 46.4°F8.0°C 43.3°F6.3°C 89% Calm Calm -- 29.90 in1012.5 mb 0.05 in1.3 mm 0.00 in0.0 mm 0.30 in7.6 mm
05:39 AM 46.3°F7.9°C 43.2°F6.2°C 89% Calm Calm -- 29.89 in1012.2 mb 0.05 in1.3 mm 0.00 in0.0 mm 0.30 in7.6 mm
05:44 AM 46.2°F7.9°C 43.1°F6.2°C 89% Calm Calm 2.0 mph3.2 kmh 29.89 in1012.2 mb 0.04 in1.0 mm 0.00 in0.0 mm 0.30 in7.6 mm
05:49 AM 46.1°F7.8°C 43.0°F6.1°C 89% Calm Calm 2.0 mph3.2 kmh 29.89 in1012.2 mb 0.04 in1.0 mm 0.00 in0.0 mm 0.31 in7.9 mm
05:54 AM 46.0°F7.8°C 42.9°F6.1°C 89% Calm Calm -- 29.89 in1012.2 mb 0.04 in1.0 mm 0.00 in0.0 mm 0.31 in7.9 mm
05:59 AM 46.0°F7.8°C 42.9°F6.1°C 89% Calm Calm -- 29.89 in1012.2 mb 0.05 in1.3 mm 0.12 in3.0 mm 0.32 in8.1 mm
06:04 AM 45.9°F7.7°C 42.8°F6.0°C 89% Calm Calm -- 29.89 in1012.2 mb 0.11 in2.8 mm 0.07 in1.8 mm 0.33 in8.4 mm
06:09 AM 45.9°F7.7°C 42.8°F6.0°C 89% Calm Calm 4.0 mph6.4 kmh 29.88 in1011.9 mb 0.10 in2.5 mm 0.00 in0.0 mm 0.34 in8.6 mm
06:14 AM 46.0°F7.8°C 42.9°F6.1°C 89% Calm Calm 3.0 mph4.8 kmh 29.88 in1011.9 mb 0.08 in2.0 mm 0.00 in0.0 mm 0.34 in8.6 mm
06:19 AM 46.0°F7.8°C 42.9°F6.1°C 89% Calm Calm -- 29.89 in1012.2 mb 0.08 in2.0 mm 0.00 in0.0 mm 0.35 in8.9 mm
06:24 AM 46.0°F7.8°C 42.9°F6.1°C 89% Calm Calm -- 29.89 in1012.2 mb 0.06 in1.5 mm 0.00 in0.0 mm 0.35 in8.9 mm
06:29 AM 46.1°F7.8°C 43.0°F6.1°C 89% Calm Calm -- 29.89 in1012.2 mb 0.06 in1.5 mm 0.00 in0.0 mm 0.36 in9.1 mm
06:34 AM 46.1°F7.8°C 43.0°F6.1°C 89% Calm Calm 1.0 mph1.6 kmh 29.89 in1012.2 mb 0.06 in1.5 mm 0.00 in0.0 mm 0.36 in9.1 mm
06:39 AM 46.2°F7.9°C 43.1°F6.2°C 89% Calm Calm -- 29.89 in1012.2 mb 0.04 in1.0 mm 0.00 in0.0 mm 0.36 in9.1 mm
06:44 AM 46.2°F7.9°C 43.1°F6.2°C 89% Calm Calm 8.0 mph12.9 kmh 29.90 in1012.5 mb 0.00 in0.0 mm 0.00 in0.0 mm 0.36 in9.1 mm
06:49 AM 46.2°F7.9°C 43.1°F6.2°C 89% Calm Calm 13.0 mph20.9 kmh 29.90 in1012.5 mb 0.00 in0.0 mm 0.00 in0.0 mm 0.37 in9.4 mm
06:54 AM 46.1°F7.8°C 43.0°F6.1°C 89% 1.0 mph NE1.6 kmh NE 13.0 mph20.9 kmh 29.90 in1012.5 mb 0.06 in1.5 mm 0.72 in18.3 mm 0.37 in9.4 mm
06:59 AM 46.0°F7.8°C 42.9°F6.1°C 89% 8.0 mph E12.9 kmh E 13.0 mph20.9 kmh 29.89 in1012.2 mb 0.06 in1.5 mm 0.00 in0.0 mm 0.38 in9.7 mm
07:04 AM 45.8°F7.7°C 42.7°F5.9°C 89% Calm Calm 13.0 mph20.9 kmh 29.89 in1012.2 mb 0.06 in1.5 mm 0.00 in0.0 mm 0.38 in9.7 mm
07:09 AM 45.7°F7.6°C 42.6°F5.9°C 89% Calm Calm 3.0 mph4.8 kmh 29.89 in1012.2 mb 0.05 in1.3 mm 0.00 in0.0 mm 0.39 in9.9 mm
07:14 AM 45.5°F7.5°C 42.4°F5.8°C 89% 1.0 mph NE1.6 kmh NE 7.0 mph11.3 kmh 29.88 in1011.9 mb 0.05 in1.3 mm 0.00 in0.0 mm 0.39 in9.9 mm
07:19 AM 45.4°F7.4°C 42.4°F5.8°C 89% 3.0 mph ENE4.8 kmh ENE 7.0 mph11.3 kmh 29.86 in1011.2 mb 0.04 in1.0 mm 0.00 in0.0 mm 0.39 in9.9 mm
07:24 AM 45.3°F7.4°C 42.3°F5.7°C 89% 1.0 mph ENE1.6 kmh ENE 13.0 mph20.9 kmh 29.87 in1011.5 mb 0.00 in0.0 mm 0.00 in0.0 mm 0.39 in9.9 mm
07:29 AM 45.2°F7.3°C 42.2°F5.7°C 89% 4.0 mph NE6.4 kmh NE 4.0 mph6.4 kmh 29.87 in1011.5 mb 0.00 in0.0 mm 0.00 in0.0 mm 0.39 in9.9 mm
07:34 AM 45.2°F7.3°C 42.2°F5.7°C 89% Calm Calm 5.0 mph8.0 kmh 29.87 in1011.5 mb 0.00 in0.0 mm 0.00 in0.0 mm 0.39 in9.9 mm
07:39 AM 45.2°F7.3°C 42.2°F5.7°C 89% Calm Calm 5.0 mph8.0 kmh 29.88 in1011.9 mb 0.00 in0.0 mm 0.00 in0.0 mm 0.39 in9.9 mm
07:44 AM 45.2°F7.3°C 42.2°F5.7°C 89% 1.0 mph NE1.6 kmh NE 8.0 mph12.9 kmh 29.88 in1011.9 mb 0.00 in0.0 mm 0.00 in0.0 mm 0.39 in9.9 mm
07:49 AM 45.2°F7.3°C 42.2°F5.7°C 89% Calm Calm 8.0 mph12.9 kmh 29.88 in1011.9 mb 0.00 in0.0 mm 0.00 in0.0 mm 0.39 in9.9 mm
07:54 AM 45.1°F7.3°C 42.1°F5.6°C 89% Calm Calm -- 29.88 in1011.9 mb 0.00 in0.0 mm 0.00 in0.0 mm 0.40 in10.2 mm
07:59 AM 45.1°F7.3°C 42.1°F5.6°C 89% 1.0 mph NE1.6 kmh NE 4.0 mph6.4 kmh 29.87 in1011.5 mb 0.00 in0.0 mm 0.00 in0.0 mm 0.40 in10.2 mm
08:04 AM 45.1°F7.3°C 42.1°F5.6°C 89% Calm Calm 5.0 mph8.0 kmh 29.87 in1011.5 mb 0.00 in0.0 mm 0.00 in0.0 mm 0.40 in10.2 mm
08:09 AM 45.1°F7.3°C 42.1°F5.6°C 89% Calm Calm -- 29.88 in1011.9 mb 0.04 in1.0 mm 0.48 in12.2 mm 0.41 in10.4 mm
08:14 AM 45.1°F7.3°C 42.1°F5.6°C 89% Calm Calm 6.0 mph9.7 kmh 29.87 in1011.5 mb 0.04 in1.0 mm 0.00 in0.0 mm 0.41 in10.4 mm
08:19 AM 45.1°F7.3°C 42.1°F5.6°C 89% Calm Calm 2.0 mph3.2 kmh 29.87 in1011.5 mb 0.08 in2.0 mm 0.48 in12.2 mm 0.42 in10.7 mm
08:24 AM 45.1°F7.3°C 42.1°F5.6°C 89% Calm Calm 3.0 mph4.8 kmh 29.88 in1011.9 mb 0.09 in2.3 mm 0.12 in3.0 mm 0.43 in10.9 mm
08:29 AM 45.2°F7.3°C 42.2°F5.7°C 89% 1.0 mph E1.6 kmh E 5.0 mph8.0 kmh 29.88 in1011.9 mb 0.14 in3.6 mm 0.60 in15.2 mm 0.44 in11.2 mm
08:34 AM 45.2°F7.3°C 42.2°F5.7°C 89% 3.0 mph E4.8 kmh E 9.0 mph14.5 kmh 29.87 in1011.5 mb 0.08 in2.0 mm 0.00 in0.0 mm 0.44 in11.2 mm
08:39 AM 45.2°F7.3°C 42.2°F5.7°C 89% Calm Calm 9.0 mph14.5 kmh 29.87 in1011.5 mb 0.08 in2.0 mm 0.00 in0.0 mm 0.45 in11.4 mm
08:44 AM 45.2°F7.3°C 42.2°F5.7°C 89% Calm Calm 10.0 mph16.1 kmh 29.88 in1011.9 mb 0.09 in2.3 mm 0.12 in3.0 mm 0.46 in11.7 mm
08:49 AM 45.2°F7.3°C 42.2°F5.7°C 89% Calm Calm 10.0 mph16.1 kmh 29.88 in1011.9 mb 0.07 in1.8 mm 0.00 in0.0 mm 0.46 in11.7 mm
08:54 AM 45.1°F7.3°C 42.1°F5.6°C 89% 2.0 mph NE3.2 kmh NE 10.0 mph16.1 kmh 29.88 in1011.9 mb 0.05 in1.3 mm 0.00 in0.0 mm 0.46 in11.7 mm
08:59 AM 45.0°F7.2°C 42.0°F5.6°C 89% Calm Calm 2.0 mph3.2 kmh 29.88 in1011.9 mb 0.05 in1.3 mm 0.00 in0.0 mm 0.47 in11.9 mm
09:04 AM 45.0°F7.2°C 42.0°F5.6°C 89% 1.0 mph ENE1.6 kmh ENE 5.0 mph8.0 kmh 29.89 in1012.2 mb 0.08 in2.0 mm 0.03 in0.8 mm 0.48 in12.2 mm
09:09 AM 44.9°F7.2°C 41.9°F5.5°C 89% Calm Calm 4.0 mph6.4 kmh 29.89 in1012.2 mb 0.07 in1.8 mm 0.00 in0.0 mm 0.48 in12.2 mm
09:14 AM 44.9°F7.2°C 41.9°F5.5°C 89% 1.0 mph ESE1.6 kmh ESE 3.0 mph4.8 kmh 29.89 in1012.2 mb 0.05 in1.3 mm 0.00 in0.0 mm 0.49 in12.4 mm
09:19 AM 44.8°F7.1°C 41.8°F5.4°C 89% 1.0 mph ENE1.6 kmh ENE 5.0 mph8.0 kmh 29.89 in1012.2 mb 0.11 in2.8 mm 0.72 in18.3 mm 0.49 in12.4 mm
09:24 AM 44.7°F7.1°C 41.7°F5.4°C 89% 1.0 mph E1.6 kmh E 1.0 mph1.6 kmh 29.89 in1012.2 mb 0.10 in2.5 mm 0.00 in0.0 mm 0.50 in12.7 mm
09:29 AM 44.7°F7.1°C 41.7°F5.4°C 89% Calm Calm 7.0 mph11.3 kmh 29.89 in1012.2 mb 0.10 in2.5 mm 0.00 in0.0 mm 0.51 in13.0 mm
09:34 AM 44.6°F7.0°C 41.6°F5.3°C 89% Calm Calm 1.0 mph1.6 kmh 29.89 in1012.2 mb 0.08 in2.0 mm 0.00 in0.0 mm 0.52 in13.2 mm
09:39 AM 44.6°F7.0°C 41.6°F5.3°C 89% Calm Calm -- 29.89 in1012.2 mb 0.08 in2.0 mm 0.00 in0.0 mm 0.52 in13.2 mm
09:44 AM 44.6°F7.0°C 41.6°F5.3°C 89% Calm Calm -- 29.89 in1012.2 mb 0.07 in1.8 mm 0.00 in0.0 mm 0.53 in13.5 mm
09:49 AM 44.7°F7.1°C 41.7°F5.4°C 89% Calm Calm 1.0 mph1.6 kmh 29.89 in1012.2 mb 0.09 in2.3 mm 0.24 in6.1 mm 0.54 in13.7 mm
09:54 AM 44.8°F7.1°C 41.8°F5.4°C 89% Calm Calm -- 29.88 in1011.9 mb 0.08 in2.0 mm 0.00 in0.0 mm 0.54 in13.7 mm
09:59 AM 44.8°F7.1°C 41.8°F5.4°C 89% Calm Calm 1.0 mph1.6 kmh 29.88 in1011.9 mb 0.07 in1.8 mm 0.00 in0.0 mm 0.55 in14.0 mm
10:04 AM 44.9°F7.2°C 41.9°F5.5°C 89% Calm Calm 2.0 mph3.2 kmh 29.87 in1011.5 mb 0.06 in1.5 mm 0.00 in0.0 mm 0.55 in14.0 mm
10:09 AM 44.9°F7.2°C 41.9°F5.5°C 89% Calm Calm 3.0 mph4.8 kmh 29.86 in1011.2 mb 0.05 in1.3 mm 0.00 in0.0 mm 0.56 in14.2 mm
10:14 AM 44.9°F7.2°C 41.9°F5.5°C 89% Calm Calm -- 29.87 in1011.5 mb 0.05 in1.3 mm 0.00 in0.0 mm 0.56 in14.2 mm
10:19 AM 45.0°F7.2°C 42.0°F5.6°C 89% Calm Calm -- 29.87 in1011.5 mb 0.05 in1.3 mm 0.00 in0.0 mm 0.57 in14.5 mm
10:24 AM 45.0°F7.2°C 42.0°F5.6°C 89% Calm Calm -- 29.86 in1011.2 mb 0.05 in1.3 mm 0.00 in0.0 mm 0.57 in14.5 mm
10:29 AM 45.0°F7.2°C 42.0°F5.6°C 89% Calm Calm -- 29.86 in1011.2 mb 0.07 in1.8 mm 0.24 in6.1 mm 0.58 in14.7 mm
10:34 AM 45.1°F7.3°C 42.1°F5.6°C 89% Calm Calm -- 29.86 in1011.2 mb 0.06 in1.5 mm 0.00 in0.0 mm 0.58 in14.7 mm
10:39 AM 45.1°F7.3°C 42.1°F5.6°C 89% Calm Calm -- 29.85 in1010.8 mb 0.06 in1.5 mm 0.00 in0.0 mm 0.59 in15.0 mm
10:44 AM 45.1°F7.3°C 42.1°F5.6°C 89% Calm Calm -- 29.85 in1010.8 mb 0.06 in1.5 mm 0.00 in0.0 mm 0.59 in15.0 mm
10:49 AM 45.1°F7.3°C 42.1°F5.6°C 89% Calm Calm -- 29.86 in1011.2 mb 0.06 in1.5 mm 0.00 in0.0 mm 0.60 in15.2 mm
10:54 AM 45.2°F7.3°C 42.2°F5.7°C 89% 2.0 mph NE3.2 kmh NE 2.0 mph3.2 kmh 29.84 in1010.5 mb 0.06 in1.5 mm 0.00 in0.0 mm 0.60 in15.2 mm
10:59 AM 45.3°F7.4°C 42.3°F5.7°C 89% Calm Calm 4.0 mph6.4 kmh 29.84 in1010.5 mb 0.05 in1.3 mm 0.00 in0.0 mm 0.61 in15.5 mm
11:04 AM 45.3°F7.4°C 42.3°F5.7°C 89% 3.0 mph ENE4.8 kmh ENE 7.0 mph11.3 kmh 29.84 in1010.5 mb 0.05 in1.3 mm 0.00 in0.0 mm 0.61 in15.5 mm
11:09 AM 45.4°F7.4°C 42.4°F5.8°C 89% Calm Calm 8.0 mph12.9 kmh 29.84 in1010.5 mb 0.04 in1.0 mm 0.00 in0.0 mm 0.61 in15.5 mm
11:14 AM 45.4°F7.4°C 42.4°F5.8°C 89% Calm Calm 8.0 mph12.9 kmh 29.83 in1010.2 mb 0.04 in1.0 mm 0.00 in0.0 mm 0.62 in15.7 mm
11:19 AM 45.5°F7.5°C 42.4°F5.8°C 89% 2.0 mph ENE3.2 kmh ENE 9.0 mph14.5 kmh 29.82 in1009.8 mb 0.04 in1.0 mm 0.00 in0.0 mm 0.62 in15.7 mm
11:24 AM 45.5°F7.5°C 42.4°F5.8°C 89% Calm Calm 10.0 mph16.1 kmh 29.83 in1010.2 mb 0.04 in1.0 mm 0.00 in0.0 mm 0.62 in15.7 mm
11:29 AM 45.6°F7.6°C 42.5°F5.8°C 89% 3.0 mph NE4.8 kmh NE 10.0 mph16.1 kmh 29.83 in1010.2 mb 0.00 in0.0 mm 0.00 in0.0 mm 0.62 in15.7 mm
11:34 AM 45.6°F7.6°C 42.5°F5.8°C 89% 3.0 mph NE4.8 kmh NE 5.0 mph8.0 kmh 29.82 in1009.8 mb 0.00 in0.0 mm 0.00 in0.0 mm 0.63 in16.0 mm
11:39 AM 45.6°F7.6°C 42.5°F5.8°C 89% 1.0 mph NE1.6 kmh NE 3.0 mph4.8 kmh 29.82 in1009.8 mb 0.00 in0.0 mm 0.00 in0.0 mm 0.63 in16.0 mm
11:44 AM 45.7°F7.6°C 42.6°F5.9°C 89% Calm Calm 8.0 mph12.9 kmh 29.82 in1009.8 mb 0.05 in1.3 mm 0.60 in15.2 mm 0.64 in16.3 mm
11:49 AM 45.7°F7.6°C 42.6°F5.9°C 89% 5.0 mph ENE8.0 kmh ENE 10.0 mph16.1 kmh 29.82 in1009.8 mb 0.05 in1.3 mm 0.00 in0.0 mm 0.64 in16.3 mm
11:54 AM 45.7°F7.6°C 42.6°F5.9°C 89% 10.0 mph ENE16.1 kmh ENE 10.0 mph16.1 kmh 29.82 in1009.8 mb 0.06 in1.5 mm 0.12 in3.0 mm 0.65 in16.5 mm
11:59 AM 45.8°F7.7°C 42.7°F5.9°C 89% 3.0 mph E4.8 kmh E 11.0 mph17.7 kmh 29.83 in1010.2 mb 0.10 in2.5 mm 0.48 in12.2 mm 0.66 in16.8 mm
12:04 PM 45.8°F7.7°C 42.7°F5.9°C 89% Calm Calm 11.0 mph17.7 kmh 29.83 in1010.2 mb 0.08 in2.0 mm 0.00 in0.0 mm 0.66 in16.8 mm
12:09 PM 45.9°F7.7°C 42.8°F6.0°C 89% Calm Calm 6.0 mph9.7 kmh 29.86 in1011.2 mb 0.08 in2.0 mm 0.00 in0.0 mm 0.67 in17.0 mm
12:14 PM 45.9°F7.7°C 42.8°F6.0°C 89% Calm Calm -- 29.85 in1010.8 mb 0.09 in2.3 mm 0.12 in3.0 mm 0.68 in17.3 mm
12:19 PM 46.0°F7.8°C 42.9°F6.1°C 89% 4.0 mph ENE6.4 kmh ENE 8.0 mph12.9 kmh 29.83 in1010.2 mb 0.09 in2.3 mm 0.00 in0.0 mm 0.68 in17.3 mm
12:24 PM 46.0°F7.8°C 42.9°F6.1°C 89% Calm Calm 10.0 mph16.1 kmh 29.83 in1010.2 mb 0.09 in2.3 mm 0.00 in0.0 mm 0.69 in17.5 mm
12:29 PM 46.1°F7.8°C 43.0°F6.1°C 89% 1.0 mph NE1.6 kmh NE 10.0 mph16.1 kmh 29.82 in1009.8 mb 0.06 in1.5 mm 0.00 in0.0 mm 0.69 in17.5 mm
12:34 PM 46.1°F7.8°C 43.0°F6.1°C 89% Calm Calm 10.0 mph16.1 kmh 29.81 in1009.5 mb 0.06 in1.5 mm 0.00 in0.0 mm 0.70 in17.8 mm
12:39 PM 46.2°F7.9°C 43.1°F6.2°C 89% 2.0 mph NE3.2 kmh NE 10.0 mph16.1 kmh 29.80 in1009.1 mb 0.05 in1.3 mm 0.00 in0.0 mm 0.70 in17.8 mm
12:44 PM 46.3°F7.9°C 43.2°F6.2°C 89% 4.0 mph NE6.4 kmh NE 11.0 mph17.7 kmh 29.79 in1008.8 mb 0.05 in1.3 mm 0.00 in0.0 mm 0.71 in18.0 mm
12:49 PM 46.3°F7.9°C 43.2°F6.2°C 89% Calm Calm 13.0 mph20.9 kmh 29.78 in1008.5 mb 0.05 in1.3 mm 0.00 in0.0 mm 0.71 in18.0 mm
12:54 PM 46.3°F7.9°C 43.2°F6.2°C 89% Calm Calm 14.0 mph22.5 kmh 29.79 in1008.8 mb 0.05 in1.3 mm 0.00 in0.0 mm 0.72 in18.3 mm
12:59 PM 46.3°F7.9°C 43.2°F6.2°C 89% 5.0 mph S8.0 kmh S 6.0 mph9.7 kmh 29.80 in1009.1 mb 0.05 in1.3 mm 0.00 in0.0 mm 0.72 in18.3 mm
01:04 PM 46.2°F7.9°C 43.1°F6.2°C 89% 13.0 mph E20.9 kmh E 15.0 mph24.1 kmh 29.78 in1008.5 mb 0.05 in1.3 mm 0.00 in0.0 mm 0.72 in18.3 mm
01:09 PM 46.0°F7.8°C 42.9°F6.1°C 89% 13.0 mph ENE20.9 kmh ENE 22.0 mph35.4 kmh 29.76 in1007.8 mb 0.04 in1.0 mm 0.00 in0.0 mm 0.73 in18.5 mm
01:14 PM 46.0°F7.8°C 42.9°F6.1°C 89% 4.0 mph NE6.4 kmh NE 22.0 mph35.4 kmh 29.77 in1008.1 mb 0.07 in1.8 mm 0.36 in9.1 mm 0.73 in18.5 mm
01:19 PM 45.9°F7.7°C 42.8°F6.0°C 89% 2.0 mph E3.2 kmh E 23.0 mph37.0 kmh 29.78 in1008.5 mb 0.07 in1.8 mm 0.00 in0.0 mm 0.74 in18.8 mm
01:24 PM 45.8°F7.7°C 42.7°F5.9°C 89% 9.0 mph E14.5 kmh E 23.0 mph37.0 kmh 29.77 in1008.1 mb 0.06 in1.5 mm 0.00 in0.0 mm 0.74 in18.8 mm
01:29 PM 45.8°F7.7°C 42.7°F5.9°C 89% 5.0 mph E8.0 kmh E 23.0 mph37.0 kmh 29.76 in1007.8 mb 0.05 in1.3 mm 0.00 in0.0 mm 0.75 in19.1 mm
01:34 PM 45.8°F7.7°C 42.7°F5.9°C 89% 5.0 mph E8.0 kmh E 23.0 mph37.0 kmh 29.76 in1007.8 mb 0.08 in2.0 mm 0.36 in9.1 mm 0.75 in19.1 mm
01:39 PM 45.8°F7.7°C 42.7°F5.9°C 89% 7.0 mph NE11.3 kmh NE 20.0 mph32.2 kmh 29.75 in1007.5 mb 0.08 in2.0 mm 0.00 in0.0 mm 0.76 in19.3 mm
01:44 PM 45.9°F7.7°C 42.8°F6.0°C 89% 8.0 mph ENE12.9 kmh ENE 20.0 mph32.2 kmh 29.74 in1007.1 mb 0.06 in1.5 mm 0.00 in0.0 mm 0.76 in19.3 mm
01:49 PM 45.9°F7.7°C 42.8°F6.0°C 89% 8.0 mph ENE12.9 kmh ENE 20.0 mph32.2 kmh 29.74 in1007.1 mb 0.04 in1.0 mm 0.00 in0.0 mm 0.76 in19.3 mm
01:54 PM 45.9°F7.7°C 42.8°F6.0°C 89% 9.0 mph NE14.5 kmh NE 20.0 mph32.2 kmh 29.74 in1007.1 mb 0.00 in0.0 mm 0.00 in0.0 mm 0.77 in19.6 mm
01:59 PM 45.8°F7.7°C 42.7°F5.9°C 89% 6.0 mph NE9.7 kmh NE 16.0 mph25.7 kmh 29.73 in1006.8 mb 0.00 in0.0 mm 0.00 in0.0 mm 0.77 in19.6 mm
02:04 PM 45.8°F7.7°C 42.7°F5.9°C 89% 4.0 mph E6.4 kmh E 16.0 mph25.7 kmh 29.73 in1006.8 mb 0.07 in1.8 mm 0.08 in2.0 mm 0.78 in19.8 mm
02:09 PM 45.8°F7.7°C 42.7°F5.9°C 89% 8.0 mph ENE12.9 kmh ENE 16.0 mph25.7 kmh 29.72 in1006.4 mb 0.08 in2.0 mm 0.12 in3.0 mm 0.78 in19.8 mm
02:14 PM 45.8°F7.7°C 42.7°F5.9°C 89% 7.0 mph NE11.3 kmh NE 17.0 mph27.4 kmh 29.72 in1006.4 mb 0.11 in2.8 mm 0.36 in9.1 mm 0.79 in20.1 mm
02:19 PM 45.8°F7.7°C 42.7°F5.9°C 89% 9.0 mph E14.5 kmh E 17.0 mph27.4 kmh 29.71 in1006.1 mb 0.11 in2.8 mm 0.00 in0.0 mm 0.80 in20.3 mm
02:24 PM 45.7°F7.6°C 42.6°F5.9°C 89% 9.0 mph ENE14.5 kmh ENE 17.0 mph27.4 kmh 29.70 in1005.8 mb 0.08 in2.0 mm 0.00 in0.0 mm 0.81 in20.6 mm
02:29 PM 45.6°F7.6°C 42.5°F5.8°C 89% 5.0 mph ENE8.0 kmh ENE 20.0 mph32.2 kmh 29.69 in1005.4 mb 0.13 in3.3 mm 0.60 in15.2 mm 0.82 in20.8 mm
02:34 PM 45.6°F7.6°C 42.5°F5.8°C 89% 18.0 mph ENE29.0 kmh ENE 22.0 mph35.4 kmh 29.68 in1005.1 mb 0.10 in2.5 mm 0.00 in0.0 mm 0.83 in21.1 mm
02:39 PM 45.5°F7.5°C 42.4°F5.8°C 89% 5.0 mph ENE8.0 kmh ENE 22.0 mph35.4 kmh 29.69 in1005.4 mb 0.08 in2.0 mm 0.00 in0.0 mm 0.83 in21.1 mm
02:44 PM 45.5°F7.5°C 42.4°F5.8°C 89% 4.0 mph NE6.4 kmh NE 22.0 mph35.4 kmh 29.69 in1005.4 mb 0.07 in1.8 mm 0.00 in0.0 mm 0.84 in21.3 mm
02:49 PM 45.5°F7.5°C 42.4°F5.8°C 89% 4.0 mph ENE6.4 kmh ENE 22.0 mph35.4 kmh 29.69 in1005.4 mb 0.24 in6.1 mm 2.04 in51.8 mm 0.85 in21.6 mm
02:54 PM 45.4°F7.4°C 42.4°F5.8°C 89% 8.0 mph NE12.9 kmh NE 17.0 mph27.4 kmh 29.68 in1005.1 mb 0.26 in6.6 mm 0.24 in6.1 mm 0.87 in22.1 mm
02:59 PM 45.4°F7.4°C 42.4°F5.8°C 89% 9.0 mph NE14.5 kmh NE 17.0 mph27.4 kmh 29.68 in1005.1 mb 0.29 in7.4 mm 0.36 in9.1 mm 0.90 in22.9 mm
03:04 PM 45.5°F7.5°C 42.4°F5.8°C 89% 12.0 mph N19.3 kmh N 18.0 mph29.0 kmh 29.68 in1005.1 mb 0.20 in5.1 mm 0.00 in0.0 mm 0.92 in23.4 mm
03:09 PM 45.5°F7.5°C 42.4°F5.8°C 89% 10.0 mph E16.1 kmh E 18.0 mph29.0 kmh 29.68 in1005.1 mb 0.20 in5.1 mm 0.00 in0.0 mm 0.93 in23.6 mm
03:14 PM 45.6°F7.6°C 42.5°F5.8°C 89% 9.0 mph E14.5 kmh E 23.0 mph37.0 kmh 29.68 in1005.1 mb 0.27 in6.9 mm 0.84 in21.3 mm 0.95 in24.1 mm
03:19 PM 45.7°F7.6°C 42.6°F5.9°C 89% 16.0 mph NNE25.7 kmh NNE 23.0 mph37.0 kmh 29.67 in1004.7 mb 0.13 in3.3 mm 0.00 in0.0 mm 0.96 in24.4 mm
03:24 PM 45.7°F7.6°C 42.6°F5.9°C 89% 8.0 mph NE12.9 kmh NE 23.0 mph37.0 kmh 29.68 in1005.1 mb 0.22 in5.6 mm 1.08 in27.4 mm 0.98 in24.9 mm
03:29 PM 45.8°F7.7°C 42.7°F5.9°C 89% 13.0 mph NE20.9 kmh NE 23.0 mph37.0 kmh 29.66 in1004.4 mb 0.23 in5.8 mm 0.12 in3.0 mm 1.00 in25.4 mm
03:34 PM 45.8°F7.7°C 42.7°F5.9°C 89% 7.0 mph NE11.3 kmh NE 21.0 mph33.8 kmh 29.66 in1004.4 mb 0.13 in3.3 mm 0.00 in0.0 mm 1.01 in25.7 mm
03:39 PM 45.9°F7.7°C 42.8°F6.0°C 89% 10.0 mph NE16.1 kmh NE 21.0 mph33.8 kmh 29.66 in1004.4 mb 0.13 in3.3 mm 0.00 in0.0 mm 1.02 in25.9 mm
03:44 PM 45.9°F7.7°C 42.8°F6.0°C 89% 8.0 mph NE12.9 kmh NE 19.0 mph30.6 kmh 29.65 in1004.1 mb 0.21 in5.3 mm 0.96 in24.4 mm 1.04 in26.4 mm
03:49 PM 46.0°F7.8°C 42.9°F6.1°C 89% 7.0 mph NE11.3 kmh NE 19.0 mph30.6 kmh 29.65 in1004.1 mb 0.14 in3.6 mm 0.00 in0.0 mm 1.05 in26.7 mm
03:54 PM 46.0°F7.8°C 42.9°F6.1°C 89% 10.0 mph NE16.1 kmh NE 27.0 mph43.5 kmh 29.64 in1003.7 mb 0.11 in2.8 mm 0.00 in0.0 mm 1.06 in26.9 mm
03:59 PM 46.1°F7.8°C 43.0°F6.1°C 89% 12.0 mph NE19.3 kmh NE 27.0 mph43.5 kmh 29.63 in1003.4 mb 0.07 in1.8 mm 0.00 in0.0 mm 1.06 in26.9 mm
04:04 PM 46.1°F7.8°C 43.0°F6.1°C 89% 14.0 mph NE22.5 kmh NE 27.0 mph43.5 kmh 29.63 in1003.4 mb 0.05 in1.3 mm 0.00 in0.0 mm 1.06 in26.9 mm
04:09 PM 46.1°F7.8°C 43.0°F6.1°C 89% 10.0 mph NE16.1 kmh NE 27.0 mph43.5 kmh 29.63 in1003.4 mb 0.05 in1.3 mm 0.00 in0.0 mm 1.07 in27.2 mm
04:14 PM 46.1°F7.8°C 43.0°F6.1°C 89% 9.0 mph NE14.5 kmh NE 22.0 mph35.4 kmh 29.63 in1003.4 mb 0.14 in3.6 mm 1.08 in27.4 mm 1.08 in27.4 mm
04:19 PM 46.2°F7.9°C 43.1°F6.2°C 89% 7.0 mph NE11.3 kmh NE 22.0 mph35.4 kmh 29.62 in1003.0 mb 0.19 in4.8 mm 0.60 in15.2 mm 1.10 in27.9 mm
04:24 PM 46.2°F7.9°C 43.1°F6.2°C 89% 9.0 mph NE14.5 kmh NE 18.0 mph29.0 kmh 29.62 in1003.0 mb 0.15 in3.8 mm 0.00 in0.0 mm 1.11 in28.2 mm
04:29 PM 46.3°F7.9°C 43.2°F6.2°C 89% 12.0 mph NE19.3 kmh NE 20.0 mph32.2 kmh 29.61 in1002.7 mb 0.14 in3.6 mm 0.00 in0.0 mm 1.12 in28.4 mm
04:34 PM 46.3°F7.9°C 43.2°F6.2°C 89% 9.0 mph NE14.5 kmh NE 20.0 mph32.2 kmh 29.61 in1002.7 mb 0.06 in1.5 mm 0.00 in0.0 mm 1.12 in28.4 mm
04:39 PM 46.3°F7.9°C 43.2°F6.2°C 89% 8.0 mph NE12.9 kmh NE 20.0 mph32.2 kmh 29.61 in1002.7 mb 0.06 in1.5 mm 0.00 in0.0 mm 1.13 in28.7 mm
04:44 PM 46.3°F7.9°C 43.2°F6.2°C 89% 9.0 mph E14.5 kmh E 20.0 mph32.2 kmh 29.61 in1002.7 mb 0.06 in1.5 mm 0.00 in0.0 mm 1.13 in28.7 mm
04:49 PM 46.3°F7.9°C 43.2°F6.2°C 89% 11.0 mph NE17.7 kmh NE 18.0 mph29.0 kmh 29.61 in1002.7 mb 0.06 in1.5 mm 0.00 in0.0 mm 1.14 in29.0 mm
04:54 PM 46.3°F7.9°C 43.2°F6.2°C 89% 15.0 mph NE24.1 kmh NE 18.0 mph29.0 kmh 29.61 in1002.7 mb 0.09 in2.3 mm 0.36 in9.1 mm 1.15 in29.2 mm
04:59 PM 46.3°F7.9°C 43.2°F6.2°C 89% 17.0 mph NE27.4 kmh NE 18.0 mph29.0 kmh 29.60 in1002.4 mb 0.14 in3.6 mm 0.60 in15.2 mm 1.16 in29.5 mm
05:04 PM 46.3°F7.9°C 43.2°F6.2°C 89% 9.0 mph NE14.5 kmh NE 19.0 mph30.6 kmh 29.60 in1002.4 mb 0.11 in2.8 mm 0.00 in0.0 mm 1.17 in29.7 mm
05:09 PM 46.3°F7.9°C 43.2°F6.2°C 89% 6.0 mph NE9.7 kmh NE 19.0 mph30.6 kmh 29.60 in1002.4 mb 0.09 in2.3 mm 0.00 in0.0 mm 1.18 in30.0 mm
05:14 PM 46.3°F7.9°C 43.2°F6.2°C 89% 5.0 mph NE8.0 kmh NE 19.0 mph30.6 kmh 29.60 in1002.4 mb 0.08 in2.0 mm 0.00 in0.0 mm 1.18 in30.0 mm
05:19 PM 46.4°F8.0°C 43.3°F6.3°C 89% 10.0 mph ENE16.1 kmh ENE 19.0 mph30.6 kmh 29.60 in1002.4 mb 0.10 in2.5 mm 0.24 in6.1 mm 1.19 in30.2 mm
05:24 PM 46.4°F8.0°C 43.3°F6.3°C 89% 5.0 mph NE8.0 kmh NE 17.0 mph27.4 kmh 29.60 in1002.4 mb 0.10 in2.5 mm 0.00 in0.0 mm 1.20 in30.5 mm
05:29 PM 46.4°F8.0°C 43.3°F6.3°C 89% 10.0 mph NE16.1 kmh NE 17.0 mph27.4 kmh 29.60 in1002.4 mb 0.08 in2.0 mm 0.00 in0.0 mm 1.21 in30.7 mm
05:34 PM 46.4°F8.0°C 43.3°F6.3°C 89% 10.0 mph ENE16.1 kmh ENE 17.0 mph27.4 kmh 29.59 in1002.0 mb 0.11 in2.8 mm 0.36 in9.1 mm 1.22 in31.0 mm
05:39 PM 46.4°F8.0°C 43.3°F6.3°C 89% 10.0 mph NE16.1 kmh NE 21.0 mph33.8 kmh 29.59 in1002.0 mb 0.10 in2.5 mm 0.00 in0.0 mm 1.22 in31.0 mm
05:44 PM 46.6°F8.1°C 43.5°F6.4°C 89% 7.0 mph NE11.3 kmh NE 21.0 mph33.8 kmh 29.59 in1002.0 mb 0.18 in4.6 mm 0.96 in24.4 mm 1.24 in31.5 mm
05:49 PM 46.7°F8.2°C 43.6°F6.4°C 89% 4.0 mph NE6.4 kmh NE 21.0 mph33.8 kmh 29.59 in1002.0 mb 0.12 in3.0 mm 0.00 in0.0 mm 1.25 in31.8 mm
05:54 PM 46.8°F8.2°C 43.7°F6.5°C 89% 10.0 mph E16.1 kmh E 21.0 mph33.8 kmh 29.59 in1002.0 mb 0.15 in3.8 mm 0.36 in9.1 mm 1.26 in32.0 mm
05:59 PM 46.9°F8.3°C 43.8°F6.6°C 89% 8.0 mph NE12.9 kmh NE 19.0 mph30.6 kmh 29.59 in1002.0 mb 0.12 in3.0 mm 0.00 in0.0 mm 1.27 in32.3 mm
06:04 PM 46.9°F8.3°C 43.8°F6.6°C 89% 8.0 mph NE12.9 kmh NE 19.0 mph30.6 kmh 29.59 in1002.0 mb 0.11 in2.8 mm 0.00 in0.0 mm 1.28 in32.5 mm
06:09 PM 47.0°F8.3°C 43.9°F6.6°C 89% 5.0 mph ENE8.0 kmh ENE 16.0 mph25.7 kmh 29.59 in1002.0 mb 0.08 in2.0 mm 0.00 in0.0 mm 1.28 in32.5 mm
06:14 PM 47.1°F8.4°C 44.0°F6.7°C 89% 5.0 mph NE8.0 kmh NE 16.0 mph25.7 kmh 29.59 in1002.0 mb 0.08 in2.0 mm 0.00 in0.0 mm 1.29 in32.8 mm
06:19 PM 47.1°F8.4°C 44.0°F6.7°C 89% 4.0 mph ENE6.4 kmh ENE 14.0 mph22.5 kmh 29.58 in1001.7 mb 0.11 in2.8 mm 0.36 in9.1 mm 1.30 in33.0 mm
06:24 PM 47.2°F8.4°C 44.1°F6.7°C 89% 13.0 mph NNE20.9 kmh NNE 15.0 mph24.1 kmh 29.58 in1001.7 mb 0.12 in3.0 mm 0.12 in3.0 mm 1.31 in33.3 mm
06:29 PM 47.2°F8.4°C 44.1°F6.7°C 89% 5.0 mph NE8.0 kmh NE 17.0 mph27.4 kmh 29.57 in1001.4 mb 0.20 in5.1 mm 0.96 in24.4 mm 1.33 in33.8 mm
06:34 PM 47.3°F8.5°C 44.2°F6.8°C 89% 7.0 mph NE11.3 kmh NE 17.0 mph27.4 kmh 29.57 in1001.4 mb 0.11 in2.8 mm 0.00 in0.0 mm 1.33 in33.8 mm
06:39 PM 47.3°F8.5°C 44.2°F6.8°C 89% 12.0 mph NE19.3 kmh NE 17.0 mph27.4 kmh 29.57 in1001.4 mb 0.09 in2.3 mm 0.00 in0.0 mm 1.34 in34.0 mm
06:44 PM 47.4°F8.6°C 44.3°F6.8°C 89% 8.0 mph ENE12.9 kmh ENE 18.0 mph29.0 kmh 29.57 in1001.4 mb 0.05 in1.3 mm 0.00 in0.0 mm 1.34 in34.0 mm
06:49 PM 47.4°F8.6°C 44.3°F6.8°C 89% 9.0 mph NE14.5 kmh NE 18.0 mph29.0 kmh 29.57 in1001.4 mb 0.04 in1.0 mm 0.00 in0.0 mm 1.34 in34.0 mm
07:29 PM 48.0°F8.9°C 44.9°F7.2°C 89% 8.0 mph E12.9 kmh E 18.0 mph29.0 kmh 29.56 in1001.0 mb 0.06 in1.5 mm 0.06 in1.5 mm 1.39 in35.3 mm
07:34 PM 48.0°F8.9°C 44.9°F7.2°C 89% 5.0 mph ENE8.0 kmh ENE 18.0 mph29.0 kmh 29.56 in1001.0 mb 0.06 in1.5 mm 0.00 in0.0 mm 1.39 in35.3 mm
07:39 PM 48.1°F8.9°C 45.0°F7.2°C 89% 5.0 mph NE8.0 kmh NE 18.0 mph29.0 kmh 29.56 in1001.0 mb 0.05 in1.3 mm 0.00 in0.0 mm 1.39 in35.3 mm
07:44 PM 48.1°F8.9°C 45.0°F7.2°C 89% 9.0 mph ENE14.5 kmh ENE 21.0 mph33.8 kmh 29.55 in1000.7 mb 0.05 in1.3 mm 0.00 in0.0 mm 1.40 in35.6 mm
07:49 PM 48.2°F9.0°C 45.1°F7.3°C 89% 8.0 mph ENE12.9 kmh ENE 21.0 mph33.8 kmh 29.55 in1000.7 mb 0.07 in1.8 mm 0.24 in6.1 mm 1.41 in35.8 mm
07:54 PM 48.2°F9.0°C 45.1°F7.3°C 89% 5.0 mph NE8.0 kmh NE 21.0 mph33.8 kmh 29.55 in1000.7 mb 0.07 in1.8 mm 0.00 in0.0 mm 1.41 in35.8 mm
07:59 PM 48.2°F9.0°C 45.1°F7.3°C 89% 10.0 mph N16.1 kmh N 21.0 mph33.8 kmh 29.55 in1000.7 mb 0.05 in1.3 mm 0.00 in0.0 mm 1.41 in35.8 mm
08:04 PM 48.2°F9.0°C 45.1°F7.3°C 89% 7.0 mph NE11.3 kmh NE 18.0 mph29.0 kmh 29.55 in1000.7 mb 0.05 in1.3 mm 0.00 in0.0 mm 1.42 in36.1 mm
08:09 PM 48.2°F9.0°C 45.1°F7.3°C 89% 4.0 mph NE6.4 kmh NE 18.0 mph29.0 kmh 29.55 in1000.7 mb 0.09 in2.3 mm 0.48 in12.2 mm 1.43 in36.3 mm
08:14 PM 48.3°F9.1°C 45.2°F7.3°C 89% 9.0 mph NNW14.5 kmh NNW 16.0 mph25.7 kmh 29.54 in1000.3 mb 0.10 in2.5 mm 0.12 in3.0 mm 1.44 in36.6 mm
08:19 PM 48.3°F9.1°C 45.2°F7.3°C 89% 10.0 mph NE16.1 kmh NE 17.0 mph27.4 kmh 29.54 in1000.3 mb 0.07 in1.8 mm 0.00 in0.0 mm 1.44 in36.6 mm
08:24 PM 48.4°F9.1°C 45.3°F7.4°C 89% 5.0 mph E8.0 kmh E 17.0 mph27.4 kmh 29.54 in1000.3 mb 0.05 in1.3 mm 0.00 in0.0 mm 1.44 in36.6 mm
08:29 PM 48.5°F9.2°C 45.4°F7.4°C 89% 13.0 mph NE20.9 kmh NE 17.0 mph27.4 kmh 29.55 in1000.7 mb 0.05 in1.3 mm 0.00 in0.0 mm 1.45 in36.8 mm
08:34 PM 48.6°F9.2°C 45.5°F7.5°C 89% 4.0 mph NE6.4 kmh NE 20.0 mph32.2 kmh 29.54 in1000.3 mb 0.06 in1.5 mm 0.12 in3.0 mm 1.45 in36.8 mm
08:39 PM 48.6°F9.2°C 45.5°F7.5°C 89% 10.0 mph ENE16.1 kmh ENE 20.0 mph32.2 kmh 29.54 in1000.3 mb 0.06 in1.5 mm 0.00 in0.0 mm 1.46 in37.1 mm
08:44 PM 48.7°F9.3°C 45.6°F7.6°C 89% 6.0 mph NE9.7 kmh NE 20.0 mph32.2 kmh 29.54 in1000.3 mb 0.06 in1.5 mm 0.00 in0.0 mm 1.46 in37.1 mm
08:49 PM 48.7°F9.3°C 45.3°F7.4°C 88% 12.0 mph NE19.3 kmh NE 20.0 mph32.2 kmh 29.53 in1000.0 mb 0.05 in1.3 mm 0.00 in0.0 mm 1.47 in37.3 mm
08:54 PM 48.8°F9.3°C 45.4°F7.4°C 88% 3.0 mph NE4.8 kmh NE 18.0 mph29.0 kmh 29.53 in1000.0 mb 0.05 in1.3 mm 0.00 in0.0 mm 1.47 in37.3 mm
08:59 PM 48.8°F9.3°C 45.4°F7.4°C 88% 9.0 mph NE14.5 kmh NE 18.0 mph29.0 kmh 29.53 in1000.0 mb 0.07 in1.8 mm 0.24 in6.1 mm 1.48 in37.6 mm
09:04 PM 48.8°F9.3°C 45.4°F7.4°C 88% 7.0 mph ENE11.3 kmh ENE 20.0 mph32.2 kmh 29.53 in1000.0 mb 0.06 in1.5 mm 0.00 in0.0 mm 1.48 in37.6 mm
09:09 PM 48.8°F9.3°C 45.4°F7.4°C 88% 5.0 mph NE8.0 kmh NE 20.0 mph32.2 kmh 29.53 in1000.0 mb 0.06 in1.5 mm 0.00 in0.0 mm 1.49 in37.8 mm
09:14 PM 48.8°F9.3°C 45.4°F7.4°C 88% 16.0 mph NNE25.7 kmh NNE 21.0 mph33.8 kmh 29.53 in1000.0 mb 0.06 in1.5 mm 0.00 in0.0 mm 1.49 in37.8 mm
09:19 PM 48.7°F9.3°C 45.6°F7.6°C 89% 6.0 mph NE9.7 kmh NE 23.0 mph37.0 kmh 29.53 in1000.0 mb 0.04 in1.0 mm 0.00 in0.0 mm 1.49 in37.8 mm
09:24 PM 48.6°F9.2°C 45.5°F7.5°C 89% 10.0 mph NE16.1 kmh NE 23.0 mph37.0 kmh 29.52 in999.7 mb 0.00 in0.0 mm 0.00 in0.0 mm 1.49 in37.8 mm
09:29 PM 48.5°F9.2°C 45.4°F7.4°C 89% 11.0 mph NE17.7 kmh NE 23.0 mph37.0 kmh 29.51 in999.3 mb 0.00 in0.0 mm 0.00 in0.0 mm 1.49 in37.8 mm
09:34 PM 48.3°F9.1°C 45.2°F7.3°C 89% 4.0 mph ENE6.4 kmh ENE 23.0 mph37.0 kmh 29.52 in999.7 mb 0.00 in0.0 mm 0.00 in0.0 mm 1.49 in37.8 mm
09:39 PM 48.2°F9.0°C 45.1°F7.3°C 89% 5.0 mph NNE8.0 kmh NNE 22.0 mph35.4 kmh 29.52 in999.7 mb 0.00 in0.0 mm 0.00 in0.0 mm 1.50 in38.1 mm
09:44 PM 48.2°F9.0°C 45.1°F7.3°C 89% 10.0 mph NE16.1 kmh NE 22.0 mph35.4 kmh 29.52 in999.7 mb 0.00 in0.0 mm 0.00 in0.0 mm 1.50 in38.1 mm
09:49 PM 48.1°F8.9°C 45.0°F7.2°C 89% 15.0 mph NE24.1 kmh NE 21.0 mph33.8 kmh 29.52 in999.7 mb 0.04 in1.0 mm 0.48 in12.2 mm 1.50 in38.1 mm
09:54 PM 48.0°F8.9°C 44.9°F7.2°C 89% 11.0 mph NE17.7 kmh NE 21.0 mph33.8 kmh 29.53 in1000.0 mb 0.04 in1.0 mm 0.00 in0.0 mm 1.51 in38.4 mm
09:59 PM 48.0°F8.9°C 44.9°F7.2°C 89% 5.0 mph NE8.0 kmh NE 18.0 mph29.0 kmh 29.53 in1000.0 mb 0.04 in1.0 mm 0.00 in0.0 mm 1.51 in38.4 mm
10:04 PM 48.0°F8.9°C 44.6°F7.0°C 88% 3.0 mph NE4.8 kmh NE 18.0 mph29.0 kmh 29.52 in999.7 mb 0.05 in1.3 mm 0.01 in0.3 mm 1.52 in38.6 mm
10:09 PM 48.0°F8.9°C 44.9°F7.2°C 89% 11.0 mph ENE17.7 kmh ENE 18.0 mph29.0 kmh 29.51 in999.3 mb 0.09 in2.3 mm 0.48 in12.2 mm 1.52 in38.6 mm
10:14 PM 47.9°F8.8°C 44.8°F7.1°C 89% 3.0 mph NE4.8 kmh NE 18.0 mph29.0 kmh 29.52 in999.7 mb 0.09 in2.3 mm 0.00 in0.0 mm 1.53 in38.9 mm
10:19 PM 47.9°F8.8°C 44.8°F7.1°C 89% 3.0 mph ENE4.8 kmh ENE 18.0 mph29.0 kmh 29.52 in999.7 mb 0.05 in1.3 mm 0.00 in0.0 mm 1.53 in38.9 mm
10:24 PM 47.9°F8.8°C 44.8°F7.1°C 89% 9.0 mph NE14.5 kmh NE 16.0 mph25.7 kmh 29.52 in999.7 mb 0.05 in1.3 mm 0.00 in0.0 mm 1.54 in39.1 mm
10:29 PM 47.8°F8.8°C 44.7°F7.1°C 89% 12.0 mph NNE19.3 kmh NNE 19.0 mph30.6 kmh 29.51 in999.3 mb 0.09 in2.3 mm 0.48 in12.2 mm 1.55 in39.4 mm
10:34 PM 47.8°F8.8°C 44.7°F7.1°C 89% 6.0 mph NE9.7 kmh NE 20.0 mph32.2 kmh 29.52 in999.7 mb 0.10 in2.5 mm 0.12 in3.0 mm 1.56 in39.6 mm
10:39 PM 47.8°F8.8°C 44.7°F7.1°C 89% 5.0 mph NE8.0 kmh NE 20.0 mph32.2 kmh 29.51 in999.3 mb 0.08 in2.0 mm 0.00 in0.0 mm 1.56 in39.6 mm
10:44 PM 47.7°F8.7°C 44.6°F7.0°C 89% 6.0 mph NNW9.7 kmh NNW 20.0 mph32.2 kmh 29.51 in999.3 mb 0.05 in1.3 mm 0.00 in0.0 mm 1.56 in39.6 mm
10:49 PM 47.7°F8.7°C 44.6°F7.0°C 89% 5.0 mph NE8.0 kmh NE 20.0 mph32.2 kmh 29.52 in999.7 mb 0.13 in3.3 mm 0.96 in24.4 mm 1.58 in40.1 mm
10:54 PM 47.7°F8.7°C 44.6°F7.0°C 89% 5.0 mph NW8.0 kmh NW 19.0 mph30.6 kmh 29.58 in1001.7 mb 0.09 in2.3 mm 0.00 in0.0 mm 1.58 in40.1 mm
10:59 PM 47.7°F8.7°C 44.6°F7.0°C 89% 5.0 mph NE8.0 kmh NE 19.0 mph30.6 kmh 29.57 in1001.4 mb 1.17 in29.7 mm 12.96 in329.2 mm 1.59 in40.4 mm
11:04 PM 47.6°F8.7°C 44.5°F6.9°C 89% 8.0 mph NE12.9 kmh NE 15.0 mph24.1 kmh 29.57 in1001.4 mb 0.39 in9.9 mm 0.00 in0.0 mm 1.65 in41.9 mm
11:09 PM 47.6°F8.7°C 44.2°F6.8°C 88% 19.0 mph NE30.6 kmh NE 19.0 mph30.6 kmh 29.57 in1001.4 mb 0.29 in7.4 mm 0.00 in0.0 mm 1.68 in42.7 mm
11:14 PM 47.4°F8.6°C 44.0°F6.7°C 88% 5.0 mph N8.0 kmh N 24.0 mph38.6 kmh 29.57 in1001.4 mb 0.15 in3.8 mm 0.00 in0.0 mm 1.70 in43.2 mm
11:19 PM 47.3°F8.5°C 43.9°F6.6°C 88% 6.0 mph NE9.7 kmh NE 24.0 mph38.6 kmh 29.55 in1000.7 mb 0.21 in5.3 mm 0.72 in18.3 mm 1.71 in43.4 mm
11:24 PM 47.3°F8.5°C 44.2°F6.8°C 89% 1.0 mph NE1.6 kmh NE 24.0 mph38.6 kmh 29.54 in1000.3 mb 0.16 in4.1 mm 0.00 in0.0 mm 1.72 in43.7 mm
11:29 PM 47.2°F8.4°C 44.1°F6.7°C 89% 7.0 mph NE11.3 kmh NE 24.0 mph38.6 kmh 29.55 in1000.7 mb 0.11 in2.8 mm 0.00 in0.0 mm 1.73 in43.9 mm
11:34 PM 47.1°F8.4°C 44.0°F6.7°C 89% 9.0 mph NE14.5 kmh NE 19.0 mph30.6 kmh 29.54 in1000.3 mb 0.10 in2.5 mm 0.00 in0.0 mm 1.74 in44.2 mm
11:39 PM 47.0°F8.3°C 43.9°F6.6°C 89% 10.0 mph NE16.1 kmh NE 19.0 mph30.6 kmh 29.53 in1000.0 mb 0.06 in1.5 mm 0.00 in0.0 mm 1.74 in44.2 mm
11:44 PM 47.0°F8.3°C 43.9°F6.6°C 89% 6.0 mph E9.7 kmh E 19.0 mph30.6 kmh 29.51 in999.3 mb 0.04 in1.0 mm 0.00 in0.0 mm 1.74 in44.2 mm
11:49 PM 47.0°F8.3°C 43.9°F6.6°C 89% 9.0 mph NE14.5 kmh NE 23.0 mph37.0 kmh 29.50 in999.0 mb 0.00 in0.0 mm 0.00 in0.0 mm 1.74 in44.2 mm
11:54 PM 47.0°F8.3°C 43.9°F6.6°C 89% 8.0 mph ENE12.9 kmh ENE 23.0 mph37.0 kmh 29.48 in998.3 mb 0.00 in0.0 mm 0.00 in0.0 mm 1.74 in44.2 mm
11:59 PM 47.0°F8.3°C 43.9°F6.6°C 89% 7.0 mph NE11.3 kmh NE 23.0 mph37.0 kmh 29.46 in997.6 mb 0.00 in0.0 mm 0.00 in0.0 mm 1.74 in44.2 mm